createdAt,value
2022-10-07T00:01:11.283Z,1.35
2022-10-07T00:03:39.690Z,2.00
2022-10-07T00:06:11.827Z,1.20
2022-10-07T00:08:41.587Z,1.77
2022-10-07T00:11:11.363Z,1.67
2022-10-07T00:13:41.491Z,1.88
2022-10-07T00:16:11.637Z,1.38
2022-10-07T00:18:41.362Z,1.65
2022-10-07T00:21:13.274Z,1.70
2022-10-07T00:23:42.900Z,2.85
2022-10-07T00:26:12.834Z,1.90
2022-10-07T00:28:40.906Z,1.35
2022-10-07T00:31:11.624Z,1.98
2022-10-07T00:33:40.848Z,1.83
2022-10-07T00:36:18.926Z,1.25
2022-10-07T00:38:50.885Z,1.50
2022-10-07T00:41:21.522Z,1.83
2022-10-07T00:43:49.422Z,1.52
2022-10-07T00:46:25.458Z,1.45
2022-10-07T00:48:53.972Z,1.70
2022-10-07T00:51:23.420Z,1.48
2022-10-07T00:53:53.294Z,1.52
2022-10-07T00:56:21.093Z,1.65
2022-10-07T00:58:50.156Z,1.90
2022-10-07T01:01:20.100Z,1.35
2022-10-07T01:03:49.182Z,2.97
2022-10-07T01:06:17.304Z,1.45
2022-10-07T01:08:48.429Z,1.58
2022-10-07T01:11:27.302Z,1.67
2022-10-07T01:14:04.243Z,1.48
2022-10-07T01:16:40.690Z,1.63
2022-10-07T01:19:22.987Z,1.83
2022-10-07T01:22:03.678Z,2.00
2022-10-07T01:24:41.491Z,1.30
2022-10-07T01:27:15.184Z,1.80
2022-10-07T01:29:47.619Z,1.33
2022-10-07T01:32:21.632Z,1.70
2022-10-07T01:34:52.604Z,2.22
2022-10-07T01:37:24.813Z,1.55
2022-10-07T01:39:56.432Z,1.42
2022-10-07T01:42:27.855Z,1.65
2022-10-07T01:44:58.813Z,1.75
2022-10-07T01:47:26.904Z,1.73
2022-10-07T01:49:54.622Z,2.28
2022-10-07T01:52:42.319Z,2.08
2022-10-07T01:55:33.781Z,1.58
2022-10-07T01:58:13.307Z,1.73
2022-10-07T02:00:46.866Z,1.45
2022-10-07T02:03:32.897Z,2.20
2022-10-07T02:06:08.113Z,1.98
2022-10-07T02:08:41.901Z,2.25
2022-10-07T02:11:16.489Z,2.30
2022-10-07T02:13:55.789Z,1.20
2022-10-07T02:16:30.075Z,1.10
2022-10-07T02:18:59.984Z,1.70
2022-10-07T02:21:32.407Z,1.73
2022-10-07T02:24:01.963Z,0.93
2022-10-07T02:26:33.964Z,1.60
2022-10-07T02:29:06.217Z,1.50
2022-10-07T02:31:35.787Z,1.30
2022-10-07T02:34:07.537Z,1.40
2022-10-07T02:36:39.061Z,1.25
2022-10-07T02:39:07.850Z,1.77
2022-10-07T02:41:41.820Z,1.52
2022-10-07T02:44:25.724Z,1.70
2022-10-07T02:46:57.783Z,1.42
2022-10-07T02:49:27.691Z,1.55
2022-10-07T02:52:00.020Z,1.25
2022-10-07T02:54:32.893Z,1.65
2022-10-07T02:57:02.288Z,1.20
2022-10-07T02:59:33.277Z,1.50
2022-10-07T03:02:04.743Z,1.95
2022-10-07T03:04:32.464Z,1.60
2022-10-07T03:07:01.114Z,2.00
2022-10-07T03:09:29.614Z,1.40
2022-10-07T03:11:57.324Z,1.38
2022-10-07T03:14:25.590Z,1.77
2022-10-07T03:16:54.946Z,1.52
2022-10-07T03:19:22.755Z,2.10
2022-10-07T03:21:50.541Z,1.45
2022-10-07T03:24:18.525Z,1.02
2022-10-07T03:26:46.636Z,1.40
2022-10-07T03:29:14.915Z,1.67
2022-10-07T03:31:43.349Z,1.73
2022-10-07T03:34:12.722Z,1.50
2022-10-07T03:36:40.414Z,2.17
2022-10-07T03:39:08.067Z,1.90
2022-10-07T03:41:37.004Z,1.38
2022-10-07T03:44:05.511Z,1.70
2022-10-07T03:46:33.270Z,1.30
2022-10-07T03:49:01.039Z,1.35
2022-10-07T03:51:32.473Z,2.53
2022-10-07T03:54:00.420Z,2.33
2022-10-07T03:56:28.267Z,1.85
2022-10-07T03:58:56.389Z,2.38
2022-10-07T04:01:24.230Z,2.40
2022-10-07T04:03:52.456Z,2.30
2022-10-07T04:06:20.197Z,1.63
2022-10-07T04:08:52.688Z,1.88
2022-10-07T04:11:20.604Z,1.63
2022-10-07T04:13:49.076Z,1.88
2022-10-07T04:16:17.162Z,2.28
2022-10-07T04:18:45.308Z,2.05
2022-10-07T04:21:13.512Z,1.70
2022-10-07T04:23:42.478Z,2.40
2022-10-07T04:26:13.413Z,1.90
2022-10-07T04:28:41.286Z,2.55
2022-10-07T04:31:10.743Z,2.47
2022-10-07T04:33:40.989Z,1.52
2022-10-07T04:36:10.979Z,2.22
2022-10-07T04:38:38.639Z,3.35
2022-10-07T04:41:08.419Z,3.13
2022-10-07T04:43:37.484Z,3.85
2022-10-07T04:46:07.196Z,2.20
2022-10-07T04:48:35.753Z,2.65
2022-10-07T04:51:03.880Z,3.78
2022-10-07T04:53:32.113Z,3.53
2022-10-07T04:56:00.381Z,1.92
2022-10-07T04:58:29.657Z,2.50
2022-10-07T05:01:00.729Z,2.42
2022-10-07T05:03:30.635Z,1.50
2022-10-07T05:06:05.812Z,1.83
2022-10-07T05:08:34.079Z,2.40
2022-10-07T05:11:03.293Z,2.47
2022-10-07T05:13:31.446Z,2.33
2022-10-07T05:16:01.999Z,1.98
2022-10-07T05:18:30.593Z,2.22
2022-10-07T05:20:58.458Z,3.08
2022-10-07T05:23:28.999Z,2.72
2022-10-07T05:26:01.568Z,2.60
2022-10-07T05:28:29.556Z,2.33
2022-10-07T05:31:07.021Z,1.98
2022-10-07T05:33:35.330Z,2.22
2022-10-07T05:36:03.326Z,2.72
2022-10-07T05:38:31.011Z,3.30
2022-10-07T05:41:00.284Z,2.42
2022-10-07T05:43:28.141Z,1.98
2022-10-07T05:46:01.278Z,2.75
2022-10-07T05:48:36.651Z,3.00
2022-10-07T05:51:07.557Z,2.28
2022-10-07T05:53:35.900Z,2.45
2022-10-07T05:56:06.458Z,2.30
2022-10-07T05:58:35.344Z,2.53
2022-10-07T06:01:07.799Z,2.97
2022-10-07T06:03:40.717Z,2.90
2022-10-07T06:06:08.847Z,3.33
2022-10-07T06:08:37.222Z,3.03
2022-10-07T06:11:23.841Z,2.40
2022-10-07T06:13:52.301Z,2.90
2022-10-07T06:16:20.658Z,2.33
2022-10-07T06:18:52.229Z,2.65
2022-10-07T06:21:20.697Z,3.03
2022-10-07T06:23:51.870Z,2.33
2022-10-07T06:26:20.190Z,3.03
2022-10-07T06:28:48.438Z,1.70
2022-10-07T06:31:22.084Z,2.38
2022-10-07T06:33:51.609Z,2.28
2022-10-07T06:36:20.080Z,3.03
2022-10-07T06:38:49.257Z,3.45
2022-10-07T06:41:17.292Z,2.63
2022-10-07T06:43:44.993Z,2.90
2022-10-07T06:46:15.552Z,2.50
2022-10-07T06:48:44.540Z,2.10
2022-10-07T06:51:15.755Z,2.58
2022-10-07T06:53:43.819Z,3.00
2022-10-07T06:56:13.412Z,2.40
2022-10-07T06:58:41.845Z,2.00
2022-10-07T07:01:09.787Z,2.63
2022-10-07T07:03:37.593Z,1.92
2022-10-07T07:06:07.738Z,1.80
2022-10-07T07:08:38.678Z,1.67
2022-10-07T07:11:28.512Z,2.75
2022-10-07T07:13:56.211Z,2.58
2022-10-07T07:16:25.108Z,2.70
2022-10-07T07:18:53.699Z,2.95
2022-10-07T07:21:22.865Z,2.63
2022-10-07T07:23:52.414Z,4.07
2022-10-07T07:26:21.270Z,2.88
2022-10-07T07:28:52.663Z,1.92
2022-10-07T07:31:20.961Z,2.03
2022-10-07T07:33:52.651Z,1.88
2022-10-07T07:36:23.116Z,2.28
2022-10-07T07:38:53.658Z,2.25
2022-10-07T07:41:22.544Z,2.70
2022-10-07T07:43:51.869Z,3.70
2022-10-07T07:46:21.037Z,2.15
2022-10-07T07:48:51.797Z,2.65
2022-10-07T07:51:19.943Z,1.85
2022-10-07T07:53:49.547Z,2.90
2022-10-07T07:56:20.135Z,2.05
2022-10-07T07:58:48.291Z,1.70
2022-10-07T08:01:18.626Z,1.92
2022-10-07T08:03:47.968Z,1.80
2022-10-07T08:06:17.823Z,1.75
2022-10-07T08:08:45.545Z,1.75
2022-10-07T08:11:15.394Z,2.35
2022-10-07T08:13:44.967Z,1.88
2022-10-07T08:16:14.521Z,2.47
2022-10-07T08:18:43.359Z,1.63
2022-10-07T08:21:11.427Z,1.63
2022-10-07T08:23:39.986Z,1.63
2022-10-07T08:26:09.862Z,1.52
2022-10-07T08:28:39.154Z,1.95
2022-10-07T08:31:09.625Z,1.17
2022-10-07T08:33:39.506Z,1.15
2022-10-07T08:36:09.658Z,1.70
2022-10-07T08:38:38.942Z,1.00
2022-10-07T08:41:23.295Z,1.20
2022-10-07T08:43:52.180Z,1.00
2022-10-07T08:46:26.521Z,1.52
2022-10-07T08:48:59.866Z,1.65
2022-10-07T08:51:34.210Z,1.45
2022-10-07T08:54:01.985Z,1.35
2022-10-07T08:56:32.037Z,2.00
2022-10-07T08:59:12.224Z,1.13
2022-10-07T09:01:55.939Z,1.25
2022-10-07T09:04:37.127Z,1.13
2022-10-07T09:07:11.471Z,1.58
2022-10-07T09:09:42.164Z,0.73
2022-10-07T09:12:16.849Z,1.05
2022-10-07T09:14:48.711Z,1.05
2022-10-07T09:17:24.016Z,1.02
2022-10-07T09:19:58.231Z,1.58
2022-10-07T09:22:32.173Z,0.82
2022-10-07T09:25:21.186Z,0.70
2022-10-07T09:27:52.097Z,0.93
2022-10-07T09:30:20.855Z,1.20
2022-10-07T09:32:51.112Z,1.25
2022-10-07T09:35:21.908Z,1.08
2022-10-07T09:37:58.935Z,1.50
2022-10-07T09:40:36.104Z,1.20
2022-10-07T09:43:13.960Z,1.17
2022-10-07T09:45:47.516Z,1.05
2022-10-07T09:48:21.595Z,1.33
2022-10-07T09:50:50.278Z,1.60
2022-10-07T09:53:20.794Z,1.20
2022-10-07T09:55:49.769Z,0.90
2022-10-07T09:58:21.553Z,1.42
2022-10-07T10:00:51.109Z,0.90
2022-10-07T10:03:20.724Z,1.08
2022-10-07T10:05:54.625Z,1.00
2022-10-07T10:08:25.317Z,1.25
2022-10-07T10:10:54.715Z,1.17
2022-10-07T10:13:34.121Z,1.25
2022-10-07T10:16:03.863Z,1.10
2022-10-07T10:18:40.036Z,1.92
2022-10-07T10:21:23.114Z,1.38
2022-10-07T10:23:53.461Z,1.50
2022-10-07T10:26:41.846Z,1.08
2022-10-07T10:29:37.468Z,1.90
2022-10-07T10:32:27.075Z,0.85
2022-10-07T10:35:03.647Z,0.90
2022-10-07T10:37:47.873Z,0.85
2022-10-07T10:40:24.678Z,1.08
2022-10-07T10:43:03.315Z,1.60
2022-10-07T10:45:38.593Z,0.93
2022-10-07T10:48:29.009Z,1.05
2022-10-07T10:51:02.295Z,0.90
2022-10-07T10:53:42.884Z,1.02
2022-10-07T10:56:31.677Z,1.45
2022-10-07T10:59:19.640Z,0.88
2022-10-07T11:01:53.485Z,1.25
2022-10-07T11:04:36.239Z,1.25
2022-10-07T11:07:14.472Z,0.93
2022-10-07T11:09:49.132Z,1.45
2022-10-07T11:12:24.969Z,1.00
2022-10-07T11:14:58.760Z,1.25
2022-10-07T11:17:32.698Z,1.63
2022-10-07T11:20:12.906Z,1.38
2022-10-07T11:22:45.941Z,1.40
2022-10-07T11:25:28.531Z,1.02
2022-10-07T11:28:02.661Z,1.67
2022-10-07T11:30:43.516Z,1.08
2022-10-07T11:33:18.471Z,1.02
2022-10-07T11:35:52.639Z,1.48
2022-10-07T11:38:25.275Z,1.38
2022-10-07T11:40:56.059Z,1.30
2022-10-07T11:43:29.634Z,1.95
2022-10-07T11:46:01.290Z,1.33
2022-10-07T11:48:37.548Z,1.88
2022-10-07T11:51:07.993Z,1.25
2022-10-07T11:53:39.459Z,1.65
2022-10-07T11:56:18.161Z,1.92
2022-10-07T11:58:48.711Z,1.50
2022-10-07T12:01:53.344Z,1.17
2022-10-07T12:04:37.249Z,1.15
2022-10-07T12:07:41.053Z,1.20
2022-10-07T12:10:22.024Z,0.85
2022-10-07T12:12:52.485Z,1.27
2022-10-07T12:15:39.072Z,1.83
2022-10-07T12:18:26.186Z,2.78
2022-10-07T12:21:10.202Z,3.30
2022-10-07T12:23:45.723Z,1.55
2022-10-07T12:26:50.300Z,1.38
2022-10-07T12:29:53.335Z,1.15
2022-10-07T12:32:57.247Z,0.90
2022-10-07T12:35:53.940Z,0.90
2022-10-07T12:38:30.952Z,1.50
2022-10-07T12:41:24.898Z,1.27
2022-10-07T12:44:06.232Z,1.33
2022-10-07T12:46:42.504Z,1.23
2022-10-07T12:49:18.095Z,0.80
2022-10-07T12:51:46.476Z,1.38
2022-10-07T12:54:19.934Z,1.00
2022-10-07T12:56:48.983Z,1.75
2022-10-07T12:59:50.149Z,1.38
2022-10-07T13:03:03.831Z,0.82
2022-10-07T13:06:21.108Z,0.88
2022-10-07T13:09:12.041Z,0.85
2022-10-07T13:12:06.495Z,0.95
2022-10-07T13:14:40.077Z,1.27
2022-10-07T13:17:24.010Z,1.00
2022-10-07T13:20:01.051Z,3.83
2022-10-07T13:22:30.668Z,2.22
2022-10-07T13:24:59.985Z,1.60
2022-10-07T13:27:31.323Z,1.33
2022-10-07T13:30:01.289Z,1.08
2022-10-07T13:32:30.971Z,1.30
2022-10-07T13:35:00.124Z,0.85
2022-10-07T13:37:30.515Z,2.03
2022-10-07T13:40:18.918Z,1.20
2022-10-07T13:42:54.423Z,1.95
2022-10-07T13:45:22.579Z,1.33
2022-10-07T13:47:51.034Z,1.35
2022-10-07T13:50:22.022Z,1.35
2022-10-07T13:52:53.229Z,1.55
2022-10-07T13:55:28.120Z,1.30
2022-10-07T13:58:00.589Z,0.82
2022-10-07T14:00:29.377Z,1.00
2022-10-07T14:02:57.112Z,1.23
2022-10-07T14:05:29.170Z,0.93
2022-10-07T14:07:59.774Z,1.27
2022-10-07T14:10:29.213Z,1.00
2022-10-07T14:13:03.073Z,1.30
2022-10-07T14:15:32.988Z,1.50
2022-10-07T14:18:08.095Z,1.83
2022-10-07T14:20:38.570Z,0.90
2022-10-07T14:23:09.030Z,0.80
2022-10-07T14:25:50.870Z,0.82
2022-10-07T14:28:28.649Z,1.25
2022-10-07T14:31:30.107Z,0.93
2022-10-07T14:34:18.795Z,0.98
2022-10-07T14:37:01.262Z,0.98
2022-10-07T14:39:35.127Z,1.58
2022-10-07T14:42:05.013Z,0.55
2022-10-07T14:44:38.043Z,1.40
2022-10-07T14:47:10.001Z,2.08
2022-10-07T14:49:37.689Z,1.10
2022-10-07T14:52:06.202Z,1.42
2022-10-07T14:54:34.697Z,1.00
2022-10-07T14:57:05.546Z,0.90
2022-10-07T14:59:37.789Z,0.63
2022-10-07T15:02:06.171Z,1.33
2022-10-07T15:04:34.199Z,1.15
2022-10-07T15:07:02.365Z,0.80
2022-10-07T15:09:30.071Z,1.95
2022-10-07T15:11:57.852Z,1.30
2022-10-07T15:14:25.567Z,1.20
2022-10-07T15:16:54.795Z,0.90
2022-10-07T15:19:22.825Z,0.70
2022-10-07T15:21:50.562Z,1.23
2022-10-07T15:24:19.279Z,0.82
2022-10-07T15:26:47.735Z,2.00
2022-10-07T15:29:16.149Z,0.98
2022-10-07T15:31:44.175Z,1.00
2022-10-07T15:34:13.916Z,0.82
2022-10-07T15:36:43.945Z,1.38
2022-10-07T15:39:11.877Z,2.28
2022-10-07T15:41:41.510Z,2.28
2022-10-07T15:44:16.011Z,1.52
2022-10-07T15:46:44.148Z,1.40
2022-10-07T15:49:13.369Z,1.10
2022-10-07T15:51:41.468Z,1.42
2022-10-07T15:54:10.894Z,1.08
2022-10-07T15:56:38.857Z,1.65
2022-10-07T15:59:06.678Z,0.93
2022-10-07T16:01:34.453Z,1.10
2022-10-07T16:06:52.206Z,1.55
2022-10-07T16:09:20.468Z,1.15
2022-10-07T16:11:49.000Z,1.70
2022-10-07T16:14:16.851Z,1.45
2022-10-07T16:16:44.651Z,1.33
2022-10-07T16:19:12.608Z,1.50
2022-10-07T16:21:42.747Z,2.97
2022-10-07T16:24:15.838Z,4.25
2022-10-07T16:26:44.414Z,4.60
2022-10-07T16:29:32.771Z,2.55
2022-10-07T16:32:00.661Z,2.78
2022-10-07T16:34:29.331Z,1.80
2022-10-07T16:36:58.063Z,2.38
2022-10-07T16:39:27.145Z,2.47
2022-10-07T16:41:56.451Z,2.22
2022-10-07T16:44:24.761Z,1.75
2022-10-07T16:46:56.505Z,1.42
2022-10-07T16:49:26.109Z,2.47
2022-10-07T16:51:54.302Z,1.90
2022-10-07T16:54:22.200Z,2.20
2022-10-07T16:56:53.215Z,2.72
2022-10-07T16:59:23.678Z,2.72
2022-10-07T17:01:54.472Z,2.22
2022-10-07T17:04:22.447Z,1.83
2022-10-07T17:06:50.524Z,2.63
2022-10-07T17:09:18.665Z,2.67
2022-10-07T17:11:47.071Z,4.97
2022-10-07T17:14:18.362Z,4.80
2022-10-07T17:16:47.950Z,3.53
2022-10-07T17:19:17.912Z,3.90
2022-10-07T17:21:47.481Z,3.92
2022-10-07T17:24:16.036Z,4.80
2022-10-07T17:26:44.221Z,4.38
2022-10-07T17:29:13.887Z,3.92
2022-10-07T17:31:44.244Z,4.65
2022-10-07T17:34:12.719Z,4.18
2022-10-07T17:36:40.878Z,3.72
2022-10-07T17:39:08.609Z,3.70
2022-10-07T17:41:38.240Z,3.90
2022-10-07T17:44:09.221Z,3.65
2022-10-07T17:46:38.939Z,3.15
2022-10-07T17:49:11.458Z,3.85
2022-10-07T17:51:42.361Z,4.13
2022-10-07T17:54:12.314Z,4.10
2022-10-07T17:56:40.168Z,4.38
2022-10-07T17:59:08.046Z,5.03
2022-10-07T18:01:36.384Z,3.17
2022-10-07T18:04:06.279Z,3.97
2022-10-07T18:06:36.920Z,4.30
2022-10-07T18:09:06.661Z,4.70
2022-10-07T18:11:52.453Z,3.42
2022-10-07T18:14:38.215Z,4.45
2022-10-07T18:17:06.770Z,3.30
2022-10-07T18:19:34.851Z,6.18
2022-10-07T18:22:03.927Z,6.05
2022-10-07T18:24:31.739Z,4.22
2022-10-07T18:27:01.817Z,4.60
2022-10-07T18:29:31.423Z,2.60
2022-10-07T18:31:59.845Z,3.20
2022-10-07T18:34:27.552Z,4.40
2022-10-07T18:36:56.896Z,4.80
2022-10-07T18:39:27.445Z,4.35
2022-10-07T18:41:55.433Z,4.88
2022-10-07T18:44:23.349Z,4.00
2022-10-07T18:46:51.172Z,4.68
2022-10-07T18:49:18.866Z,3.72
2022-10-07T18:51:47.212Z,3.50
2022-10-07T18:54:15.645Z,4.07
2022-10-07T18:56:53.549Z,3.67
2022-10-07T18:59:31.217Z,5.22
2022-10-07T19:02:36.067Z,5.07
2022-10-07T19:05:32.925Z,5.20
2022-10-07T19:08:06.712Z,5.78
2022-10-07T19:10:45.059Z,4.57
2022-10-07T19:13:40.100Z,3.50
2022-10-07T19:16:30.848Z,4.05
2022-10-07T19:19:02.788Z,3.60
2022-10-07T19:21:41.089Z,3.75
2022-10-07T19:24:15.357Z,3.47
2022-10-07T19:27:05.305Z,3.25
2022-10-07T19:30:04.790Z,3.65
2022-10-07T19:33:32.991Z,5.57
2022-10-07T19:36:26.083Z,6.57
2022-10-07T19:39:04.663Z,5.68
2022-10-07T19:41:41.326Z,4.93
2022-10-07T19:44:20.366Z,6.75
2022-10-07T19:47:04.482Z,7.63
2022-10-07T19:49:40.122Z,6.70
2022-10-07T19:52:24.067Z,6.97
2022-10-07T19:54:57.968Z,5.93
2022-10-07T19:57:32.078Z,5.85
2022-10-07T20:00:07.463Z,6.03
2022-10-07T20:02:44.395Z,5.88
2022-10-07T20:05:18.596Z,7.25
2022-10-07T20:07:49.728Z,7.22
2022-10-07T20:10:25.255Z,6.13
2022-10-07T20:12:57.846Z,6.00
2022-10-07T20:15:29.687Z,4.95
2022-10-07T20:18:08.723Z,4.63
2022-10-07T20:20:42.309Z,5.50
2022-10-07T20:23:19.633Z,4.75
2022-10-07T20:25:58.023Z,3.90
2022-10-07T20:28:38.463Z,3.80
2022-10-07T20:31:28.846Z,4.00
2022-10-07T20:34:19.885Z,2.97
2022-10-07T20:37:12.514Z,5.15
2022-10-07T20:40:04.694Z,4.55
2022-10-07T20:42:43.332Z,4.18
2022-10-07T20:45:25.356Z,3.70
2022-10-07T20:48:02.001Z,5.00
2022-10-07T20:50:42.286Z,3.78
2022-10-07T20:53:23.075Z,3.97
2022-10-07T20:56:10.292Z,4.50
2022-10-07T20:58:50.194Z,4.20
2022-10-07T21:01:30.016Z,4.25
2022-10-07T21:04:10.223Z,4.30
2022-10-07T21:06:56.257Z,4.38
2022-10-07T21:09:39.056Z,4.40
2022-10-07T21:12:19.428Z,4.80
2022-10-07T21:14:58.763Z,5.43
2022-10-07T21:17:37.657Z,4.35
2022-10-07T21:20:21.280Z,4.70
2022-10-07T21:23:03.663Z,4.50
2022-10-07T21:25:44.186Z,5.07
2022-10-07T21:28:25.390Z,4.28
2022-10-07T21:31:06.332Z,4.45
2022-10-07T21:33:52.296Z,4.30
2022-10-07T21:36:32.280Z,3.72
2022-10-07T21:39:25.684Z,3.85
2022-10-07T21:41:54.649Z,4.55
2022-10-07T21:44:22.806Z,3.83
2022-10-07T21:46:50.720Z,4.10
2022-10-07T21:49:18.455Z,3.83
2022-10-07T21:51:46.189Z,3.78
2022-10-07T21:54:15.527Z,4.47
2022-10-07T21:56:45.994Z,4.60
2022-10-07T21:59:14.114Z,4.45
2022-10-07T22:01:42.482Z,3.63
2022-10-07T22:04:16.176Z,5.13
2022-10-07T22:07:01.746Z,4.28
2022-10-07T22:09:31.279Z,3.78
2022-10-07T22:11:59.009Z,4.70
2022-10-07T22:14:27.479Z,3.17
2022-10-07T22:16:55.196Z,3.25
2022-10-07T22:19:23.317Z,3.35
2022-10-07T22:21:51.295Z,3.63
2022-10-07T22:24:19.033Z,3.20
2022-10-07T22:26:50.941Z,3.10
2022-10-07T22:29:19.934Z,3.05
2022-10-07T22:31:47.962Z,2.80
2022-10-07T22:34:29.594Z,4.05
2022-10-07T22:36:58.725Z,4.72
2022-10-07T22:39:26.632Z,2.67
2022-10-07T22:41:55.642Z,3.15
2022-10-07T22:44:23.357Z,3.08
2022-10-07T22:46:51.124Z,3.38
2022-10-07T22:49:18.748Z,2.80
2022-10-07T22:51:46.497Z,3.00
2022-10-07T22:54:14.985Z,4.00
2022-10-07T22:56:42.687Z,3.70
2022-10-07T22:59:11.742Z,3.38
2022-10-07T23:01:39.505Z,3.35
2022-10-07T23:04:07.403Z,2.90
2022-10-07T23:06:36.737Z,2.63
2022-10-07T23:09:05.274Z,3.30
2022-10-07T23:11:33.116Z,3.00
2022-10-07T23:14:00.834Z,3.05
2022-10-07T23:16:33.843Z,2.40
2022-10-07T23:19:02.005Z,2.47
2022-10-07T23:21:33.500Z,2.25
2022-10-07T23:24:06.953Z,2.85
2022-10-07T23:26:36.110Z,2.95
2022-10-07T23:29:04.366Z,2.10
2022-10-07T23:31:33.525Z,2.47
2022-10-07T23:34:02.834Z,2.40
2022-10-07T23:36:30.916Z,3.33
2022-10-07T23:39:00.374Z,2.78
2022-10-07T23:41:30.093Z,2.70
2022-10-07T23:43:59.893Z,3.17
2022-10-07T23:46:28.720Z,3.10
2022-10-07T23:48:57.748Z,3.70
2022-10-07T23:51:28.149Z,3.88
2022-10-07T23:53:56.973Z,3.35
2022-10-07T23:56:24.645Z,2.72
2022-10-07T23:58:52.442Z,2.17
